sensor_id;sensor_type;location;lat;lon;timestamp;temperature;humidity
46309;DHT22;32037;50.820;6.494;2022-07-23T00:01:40;24.70;53.50
46309;DHT22;32037;50.820;6.494;2022-07-23T00:04:09;24.70;53.40
46309;DHT22;32037;50.820;6.494;2022-07-23T00:06:39;24.70;53.40
46309;DHT22;32037;50.820;6.494;2022-07-23T00:09:07;24.70;53.50
46309;DHT22;32037;50.820;6.494;2022-07-23T00:11:36;24.70;53.50
46309;DHT22;32037;50.820;6.494;2022-07-23T00:14:05;24.70;53.50
46309;DHT22;32037;50.820;6.494;2022-07-23T00:16:33;24.70;53.40
46309;DHT22;32037;50.820;6.494;2022-07-23T00:19:02;24.70;53.50
46309;DHT22;32037;50.820;6.494;2022-07-23T00:21:30;24.70;53.50
46309;DHT22;32037;50.820;6.494;2022-07-23T00:24:00;24.70;53.50
46309;DHT22;32037;50.820;6.494;2022-07-23T00:26:29;24.70;53.50
46309;DHT22;32037;50.820;6.494;2022-07-23T00:28:57;24.70;53.50
46309;DHT22;32037;50.820;6.494;2022-07-23T00:31:26;24.70;53.50
46309;DHT22;32037;50.820;6.494;2022-07-23T00:33:54;24.70;53.60
46309;DHT22;32037;50.820;6.494;2022-07-23T00:36:24;24.70;53.50
46309;DHT22;32037;50.820;6.494;2022-07-23T00:38:52;24.70;53.60
46309;DHT22;32037;50.820;6.494;2022-07-23T00:41:22;24.70;53.60
46309;DHT22;32037;50.820;6.494;2022-07-23T00:43:50;24.70;53.70
46309;DHT22;32037;50.820;6.494;2022-07-23T00:46:19;24.70;53.70
46309;DHT22;32037;50.820;6.494;2022-07-23T00:48:48;24.70;53.60
46309;DHT22;32037;50.820;6.494;2022-07-23T00:51:17;24.70;53.60
46309;DHT22;32037;50.820;6.494;2022-07-23T00:53:45;24.70;53.50
46309;DHT22;32037;50.820;6.494;2022-07-23T00:56:14;24.70;53.70
46309;DHT22;32037;50.820;6.494;2022-07-23T00:58:44;24.70;53.60
46309;DHT22;32037;50.820;6.494;2022-07-23T01:01:13;24.70;53.60
46309;DHT22;32037;50.820;6.494;2022-07-23T01:03:42;24.70;53.60
46309;DHT22;32037;50.820;6.494;2022-07-23T01:06:10;24.60;53.50
46309;DHT22;32037;50.820;6.494;2022-07-23T01:08:39;24.70;53.60
46309;DHT22;32037;50.820;6.494;2022-07-23T01:11:08;24.70;53.60
46309;DHT22;32037;50.820;6.494;2022-07-23T01:13:40;24.60;53.50
46309;DHT22;32037;50.820;6.494;2022-07-23T01:16:10;24.60;53.50
46309;DHT22;32037;50.820;6.494;2022-07-23T01:18:39;24.60;53.50
46309;DHT22;32037;50.820;6.494;2022-07-23T01:21:08;24.60;53.60
46309;DHT22;32037;50.820;6.494;2022-07-23T01:23:39;24.60;54.80
46309;DHT22;32037;50.820;6.494;2022-07-23T01:26:08;24.60;53.60
46309;DHT22;32037;50.820;6.494;2022-07-23T01:28:37;24.60;53.50
46309;DHT22;32037;50.820;6.494;2022-07-23T01:31:06;24.60;53.50
46309;DHT22;32037;50.820;6.494;2022-07-23T01:33:35;24.60;53.50
46309;DHT22;32037;50.820;6.494;2022-07-23T01:36:07;24.60;53.50
46309;DHT22;32037;50.820;6.494;2022-07-23T01:38:36;24.60;53.50
46309;DHT22;32037;50.820;6.494;2022-07-23T01:41:06;24.60;53.50
46309;DHT22;32037;50.820;6.494;2022-07-23T01:43:34;24.60;53.50
46309;DHT22;32037;50.820;6.494;2022-07-23T01:46:03;24.60;53.50
46309;DHT22;32037;50.820;6.494;2022-07-23T01:48:38;24.60;53.50
46309;DHT22;32037;50.820;6.494;2022-07-23T01:51:24;24.60;53.50
46309;DHT22;32037;50.820;6.494;2022-07-23T01:53:59;24.60;53.60
46309;DHT22;32037;50.820;6.494;2022-07-23T01:56:29;24.60;53.50
46309;DHT22;32037;50.820;6.494;2022-07-23T01:58:57;24.60;53.50
46309;DHT22;32037;50.820;6.494;2022-07-23T02:01:26;24.60;53.50
46309;DHT22;32037;50.820;6.494;2022-07-23T02:03:55;24.60;53.50
46309;DHT22;32037;50.820;6.494;2022-07-23T02:06:24;24.60;53.50
46309;DHT22;32037;50.820;6.494;2022-07-23T02:08:52;24.60;53.50
46309;DHT22;32037;50.820;6.494;2022-07-23T02:11:21;24.60;53.50
46309;DHT22;32037;50.820;6.494;2022-07-23T02:13:51;24.60;53.50
46309;DHT22;32037;50.820;6.494;2022-07-23T02:16:21;24.60;53.60
46309;DHT22;32037;50.820;6.494;2022-07-23T02:18:49;24.50;53.50
46309;DHT22;32037;50.820;6.494;2022-07-23T02:21:17;24.50;53.50
46309;DHT22;32037;50.820;6.494;2022-07-23T02:23:46;24.50;53.50
46309;DHT22;32037;50.820;6.494;2022-07-23T02:26:14;24.50;53.50
46309;DHT22;32037;50.820;6.494;2022-07-23T02:28:50;24.50;53.50
46309;DHT22;32037;50.820;6.494;2022-07-23T02:31:19;24.60;53.50
46309;DHT22;32037;50.820;6.494;2022-07-23T02:33:48;24.50;53.50
46309;DHT22;32037;50.820;6.494;2022-07-23T02:36:17;24.50;53.50
46309;DHT22;32037;50.820;6.494;2022-07-23T02:38:46;24.50;53.50
46309;DHT22;32037;50.820;6.494;2022-07-23T02:41:15;24.50;53.50
46309;DHT22;32037;50.820;6.494;2022-07-23T02:43:43;24.50;53.50
46309;DHT22;32037;50.820;6.494;2022-07-23T02:46:14;24.50;53.50
46309;DHT22;32037;50.820;6.494;2022-07-23T02:48:43;24.50;53.50
46309;DHT22;32037;50.820;6.494;2022-07-23T02:51:11;24.50;53.50
46309;DHT22;32037;50.820;6.494;2022-07-23T02:53:47;24.50;53.50
46309;DHT22;32037;50.820;6.494;2022-07-23T02:56:15;24.50;53.50
46309;DHT22;32037;50.820;6.494;2022-07-23T02:58:43;24.50;53.50
46309;DHT22;32037;50.820;6.494;2022-07-23T03:01:15;24.50;53.50
46309;DHT22;32037;50.820;6.494;2022-07-23T03:03:47;24.50;53.50
46309;DHT22;32037;50.820;6.494;2022-07-23T03:06:15;24.50;53.50
46309;DHT22;32037;50.820;6.494;2022-07-23T03:08:44;24.50;53.50
46309;DHT22;32037;50.820;6.494;2022-07-23T03:11:12;24.50;53.50
46309;DHT22;32037;50.820;6.494;2022-07-23T03:13:43;24.50;53.40
46309;DHT22;32037;50.820;6.494;2022-07-23T03:16:13;24.50;53.50
46309;DHT22;32037;50.820;6.494;2022-07-23T03:18:42;24.40;53.40
46309;DHT22;32037;50.820;6.494;2022-07-23T03:21:12;24.40;53.40
46309;DHT22;32037;50.820;6.494;2022-07-23T03:23:40;24.50;53.50
46309;DHT22;32037;50.820;6.494;2022-07-23T03:26:08;24.40;53.40
46309;DHT22;32037;50.820;6.494;2022-07-23T03:28:36;24.50;53.50
46309;DHT22;32037;50.820;6.494;2022-07-23T03:31:05;24.40;53.40
46309;DHT22;32037;50.820;6.494;2022-07-23T03:33:35;24.40;53.40
46309;DHT22;32037;50.820;6.494;2022-07-23T03:36:03;24.40;53.40
46309;DHT22;32037;50.820;6.494;2022-07-23T03:38:39;24.40;53.50
46309;DHT22;32037;50.820;6.494;2022-07-23T03:41:07;24.40;53.40
46309;DHT22;32037;50.820;6.494;2022-07-23T03:43:35;24.40;53.40
46309;DHT22;32037;50.820;6.494;2022-07-23T03:46:04;24.40;53.40
46309;DHT22;32037;50.820;6.494;2022-07-23T03:48:34;24.40;53.40
46309;DHT22;32037;50.820;6.494;2022-07-23T03:51:03;24.40;53.40
46309;DHT22;32037;50.820;6.494;2022-07-23T03:53:32;24.40;53.40
46309;DHT22;32037;50.820;6.494;2022-07-23T03:56:01;24.40;53.40
46309;DHT22;32037;50.820;6.494;2022-07-23T03:58:29;24.40;53.40
46309;DHT22;32037;50.820;6.494;2022-07-23T04:00:58;24.40;53.40
46309;DHT22;32037;50.820;6.494;2022-07-23T04:03:26;24.40;53.40
46309;DHT22;32037;50.820;6.494;2022-07-23T04:05:55;24.30;53.40
46309;DHT22;32037;50.820;6.494;2022-07-23T04:08:24;24.40;53.40
46309;DHT22;32037;50.820;6.494;2022-07-23T04:10:53;24.30;53.30
46309;DHT22;32037;50.820;6.494;2022-07-23T04:13:22;24.30;53.30
46309;DHT22;32037;50.820;6.494;2022-07-23T04:15:51;24.30;53.30
46309;DHT22;32037;50.820;6.494;2022-07-23T04:18:19;24.30;53.30
46309;DHT22;32037;50.820;6.494;2022-07-23T04:21:02;24.30;53.30
46309;DHT22;32037;50.820;6.494;2022-07-23T04:23:30;24.30;53.30
46309;DHT22;32037;50.820;6.494;2022-07-23T04:25:59;24.30;53.30
46309;DHT22;32037;50.820;6.494;2022-07-23T04:28:27;24.30;53.30
46309;DHT22;32037;50.820;6.494;2022-07-23T04:30:56;24.30;53.30
46309;DHT22;32037;50.820;6.494;2022-07-23T04:33:25;24.30;53.30
46309;DHT22;32037;50.820;6.494;2022-07-23T04:35:55;24.30;53.30
46309;DHT22;32037;50.820;6.494;2022-07-23T04:38:25;24.30;53.30
46309;DHT22;32037;50.820;6.494;2022-07-23T04:40:58;24.30;53.30
46309;DHT22;32037;50.820;6.494;2022-07-23T04:43:26;24.30;53.30
46309;DHT22;32037;50.820;6.494;2022-07-23T04:45:55;24.30;53.30
46309;DHT22;32037;50.820;6.494;2022-07-23T04:48:25;24.30;53.30
46309;DHT22;32037;50.820;6.494;2022-07-23T04:51:04;24.30;53.30
46309;DHT22;32037;50.820;6.494;2022-07-23T04:53:37;24.30;53.30
46309;DHT22;32037;50.820;6.494;2022-07-23T04:56:05;24.30;53.30
46309;DHT22;32037;50.820;6.494;2022-07-23T04:58:33;24.30;53.30
46309;DHT22;32037;50.820;6.494;2022-07-23T05:01:02;24.30;53.30
46309;DHT22;32037;50.820;6.494;2022-07-23T05:03:34;24.30;53.30
46309;DHT22;32037;50.820;6.494;2022-07-23T05:06:02;24.30;53.30
46309;DHT22;32037;50.820;6.494;2022-07-23T05:08:30;24.20;53.20
46309;DHT22;32037;50.820;6.494;2022-07-23T05:11:01;24.20;53.20
46309;DHT22;32037;50.820;6.494;2022-07-23T05:13:29;24.20;53.30
46309;DHT22;32037;50.820;6.494;2022-07-23T05:15:58;24.20;53.20
46309;DHT22;32037;50.820;6.494;2022-07-23T05:18:26;24.20;53.30
46309;DHT22;32037;50.820;6.494;2022-07-23T05:20:55;24.20;53.20
46309;DHT22;32037;50.820;6.494;2022-07-23T05:23:23;24.20;53.20
46309;DHT22;32037;50.820;6.494;2022-07-23T05:25:52;24.30;53.30
46309;DHT22;32037;50.820;6.494;2022-07-23T05:28:22;24.20;53.20
46309;DHT22;32037;50.820;6.494;2022-07-23T05:30:53;24.20;53.20
46309;DHT22;32037;50.820;6.494;2022-07-23T05:33:24;24.20;53.20
46309;DHT22;32037;50.820;6.494;2022-07-23T05:35:53;24.20;53.20
46309;DHT22;32037;50.820;6.494;2022-07-23T05:38:27;24.20;53.20
46309;DHT22;32037;50.820;6.494;2022-07-23T05:40:59;24.20;53.20
46309;DHT22;32037;50.820;6.494;2022-07-23T05:43:30;24.20;53.20
46309;DHT22;32037;50.820;6.494;2022-07-23T05:46:02;24.20;53.20
46309;DHT22;32037;50.820;6.494;2022-07-23T05:48:32;24.20;53.20
46309;DHT22;32037;50.820;6.494;2022-07-23T05:51:24;24.20;53.20
46309;DHT22;32037;50.820;6.494;2022-07-23T05:53:53;24.20;53.20
46309;DHT22;32037;50.820;6.494;2022-07-23T05:56:24;24.20;53.20
46309;DHT22;32037;50.820;6.494;2022-07-23T05:58:54;24.20;53.20
46309;DHT22;32037;50.820;6.494;2022-07-23T06:01:22;24.20;53.20
46309;DHT22;32037;50.820;6.494;2022-07-23T06:04:00;24.10;53.10
46309;DHT22;32037;50.820;6.494;2022-07-23T06:06:34;24.10;53.10
46309;DHT22;32037;50.820;6.494;2022-07-23T06:09:03;24.10;53.10
46309;DHT22;32037;50.820;6.494;2022-07-23T06:11:32;24.10;53.10
46309;DHT22;32037;50.820;6.494;2022-07-23T06:14:02;24.10;53.20
46309;DHT22;32037;50.820;6.494;2022-07-23T06:16:44;24.10;53.80
46309;DHT22;32037;50.820;6.494;2022-07-23T06:19:12;24.10;54.10
46309;DHT22;32037;50.820;6.494;2022-07-23T06:21:41;24.00;54.40
46309;DHT22;32037;50.820;6.494;2022-07-23T06:24:14;24.00;54.60
46309;DHT22;32037;50.820;6.494;2022-07-23T06:26:43;24.00;55.00
46309;DHT22;32037;50.820;6.494;2022-07-23T06:29:12;23.90;55.10
46309;DHT22;32037;50.820;6.494;2022-07-23T06:31:41;24.00;55.10
46309;DHT22;32037;50.820;6.494;2022-07-23T06:34:10;24.00;55.60
46309;DHT22;32037;50.820;6.494;2022-07-23T06:36:38;23.90;55.80
46309;DHT22;32037;50.820;6.494;2022-07-23T06:39:08;23.90;55.60
46309;DHT22;32037;50.820;6.494;2022-07-23T06:41:37;23.90;55.80
46309;DHT22;32037;50.820;6.494;2022-07-23T06:44:06;23.80;56.70
46309;DHT22;32037;50.820;6.494;2022-07-23T06:46:36;23.80;56.80
46309;DHT22;32037;50.820;6.494;2022-07-23T06:49:04;23.80;56.60
46309;DHT22;32037;50.820;6.494;2022-07-23T06:51:34;23.80;57.60
46309;DHT22;32037;50.820;6.494;2022-07-23T06:54:02;23.80;57.30
46309;DHT22;32037;50.820;6.494;2022-07-23T06:56:31;23.80;57.30
46309;DHT22;32037;50.820;6.494;2022-07-23T06:59:00;23.80;57.10
46309;DHT22;32037;50.820;6.494;2022-07-23T07:01:29;23.80;56.90
46309;DHT22;32037;50.820;6.494;2022-07-23T07:03:58;23.80;56.70
46309;DHT22;32037;50.820;6.494;2022-07-23T07:06:26;23.80;56.70
46309;DHT22;32037;50.820;6.494;2022-07-23T07:08:54;23.80;56.70
46309;DHT22;32037;50.820;6.494;2022-07-23T07:11:23;23.80;56.70
46309;DHT22;32037;50.820;6.494;2022-07-23T07:13:53;23.80;56.70
46309;DHT22;32037;50.820;6.494;2022-07-23T07:16:21;23.90;56.70
46309;DHT22;32037;50.820;6.494;2022-07-23T07:18:58;23.90;56.90
46309;DHT22;32037;50.820;6.494;2022-07-23T07:21:27;23.90;56.90
46309;DHT22;32037;50.820;6.494;2022-07-23T07:23:57;23.90;57.10
46309;DHT22;32037;50.820;6.494;2022-07-23T07:26:26;23.90;57.10
46309;DHT22;32037;50.820;6.494;2022-07-23T07:28:54;23.90;57.10
46309;DHT22;32037;50.820;6.494;2022-07-23T07:31:22;23.90;57.00
46309;DHT22;32037;50.820;6.494;2022-07-23T07:33:50;23.90;57.00
46309;DHT22;32037;50.820;6.494;2022-07-23T07:36:20;23.90;56.80
46309;DHT22;32037;50.820;6.494;2022-07-23T07:38:48;23.90;56.70
46309;DHT22;32037;50.820;6.494;2022-07-23T07:41:16;23.90;56.70
46309;DHT22;32037;50.820;6.494;2022-07-23T07:43:50;23.90;56.50
46309;DHT22;32037;50.820;6.494;2022-07-23T07:46:19;23.90;56.50
46309;DHT22;32037;50.820;6.494;2022-07-23T07:48:49;23.90;56.50
46309;DHT22;32037;50.820;6.494;2022-07-23T07:51:25;23.80;56.60
46309;DHT22;32037;50.820;6.494;2022-07-23T07:53:54;23.70;57.20
46309;DHT22;32037;50.820;6.494;2022-07-23T07:56:22;23.70;57.80
46309;DHT22;32037;50.820;6.494;2022-07-23T07:58:52;23.60;58.20
46309;DHT22;32037;50.820;6.494;2022-07-23T08:01:20;23.60;59.50
46309;DHT22;32037;50.820;6.494;2022-07-23T08:03:49;23.50;59.40
46309;DHT22;32037;50.820;6.494;2022-07-23T08:06:17;23.50;59.10
46309;DHT22;32037;50.820;6.494;2022-07-23T08:08:48;23.50;59.60
46309;DHT22;32037;50.820;6.494;2022-07-23T08:11:17;23.40;59.90
46309;DHT22;32037;50.820;6.494;2022-07-23T08:13:46;23.40;59.70
46309;DHT22;32037;50.820;6.494;2022-07-23T08:16:14;23.40;59.20
46309;DHT22;32037;50.820;6.494;2022-07-23T08:18:43;23.40;59.40
46309;DHT22;32037;50.820;6.494;2022-07-23T08:21:11;23.40;59.60
46309;DHT22;32037;50.820;6.494;2022-07-23T08:23:39;23.30;59.70
46309;DHT22;32037;50.820;6.494;2022-07-23T08:26:11;23.20;61.50
46309;DHT22;32037;50.820;6.494;2022-07-23T08:28:40;23.20;60.90
46309;DHT22;32037;50.820;6.494;2022-07-23T08:31:08;23.20;60.90
46309;DHT22;32037;50.820;6.494;2022-07-23T08:33:38;23.20;60.50
46309;DHT22;32037;50.820;6.494;2022-07-23T08:36:07;23.20;60.50
46309;DHT22;32037;50.820;6.494;2022-07-23T08:38:36;23.20;60.80
46309;DHT22;32037;50.820;6.494;2022-07-23T08:41:07;23.20;61.50
46309;DHT22;32037;50.820;6.494;2022-07-23T08:43:37;23.20;61.50
46309;DHT22;32037;50.820;6.494;2022-07-23T08:46:09;23.20;60.80
46309;DHT22;32037;50.820;6.494;2022-07-23T08:48:37;23.20;60.50
46309;DHT22;32037;50.820;6.494;2022-07-23T08:51:07;23.20;60.70
46309;DHT22;32037;50.820;6.494;2022-07-23T08:53:37;23.20;60.90
46309;DHT22;32037;50.820;6.494;2022-07-23T08:56:07;23.20;60.70
46309;DHT22;32037;50.820;6.494;2022-07-23T08:58:38;23.20;60.50
46309;DHT22;32037;50.820;6.494;2022-07-23T09:01:06;23.20;60.60
46309;DHT22;32037;50.820;6.494;2022-07-23T09:03:36;23.20;61.50
46309;DHT22;32037;50.820;6.494;2022-07-23T09:06:07;23.20;60.00
46309;DHT22;32037;50.820;6.494;2022-07-23T09:08:36;23.20;60.10
46309;DHT22;32037;50.820;6.494;2022-07-23T09:11:06;23.20;60.10
46309;DHT22;32037;50.820;6.494;2022-07-23T09:13:40;23.20;60.20
46309;DHT22;32037;50.820;6.494;2022-07-23T09:16:12;23.20;59.30
46309;DHT22;32037;50.820;6.494;2022-07-23T09:18:44;23.20;59.20
46309;DHT22;32037;50.820;6.494;2022-07-23T09:21:18;23.20;59.60
46309;DHT22;32037;50.820;6.494;2022-07-23T09:23:50;23.20;59.90
46309;DHT22;32037;50.820;6.494;2022-07-23T09:26:30;23.20;59.80
46309;DHT22;32037;50.820;6.494;2022-07-23T09:29:07;23.20;60.20
46309;DHT22;32037;50.820;6.494;2022-07-23T09:31:44;23.20;60.80
46309;DHT22;32037;50.820;6.494;2022-07-23T09:34:16;23.30;60.70
46309;DHT22;32037;50.820;6.494;2022-07-23T09:36:46;23.40;60.40
46309;DHT22;32037;50.820;6.494;2022-07-23T09:39:25;23.40;59.90
46309;DHT22;32037;50.820;6.494;2022-07-23T09:41:55;23.40;59.60
46309;DHT22;32037;50.820;6.494;2022-07-23T09:44:25;23.50;59.40
46309;DHT22;32037;50.820;6.494;2022-07-23T09:46:59;23.50;59.30
46309;DHT22;32037;50.820;6.494;2022-07-23T09:49:29;23.50;59.10
46309;DHT22;32037;50.820;6.494;2022-07-23T09:51:59;23.50;59.10
46309;DHT22;32037;50.820;6.494;2022-07-23T09:54:33;23.50;58.90
46309;DHT22;32037;50.820;6.494;2022-07-23T09:57:05;23.50;58.60
46309;DHT22;32037;50.820;6.494;2022-07-23T09:59:38;23.60;59.40
46309;DHT22;32037;50.820;6.494;2022-07-23T10:02:09;23.70;57.90
46309;DHT22;32037;50.820;6.494;2022-07-23T10:04:54;23.70;57.50
46309;DHT22;32037;50.820;6.494;2022-07-23T10:07:33;23.80;57.40
46309;DHT22;32037;50.820;6.494;2022-07-23T10:10:21;23.80;57.30
46309;DHT22;32037;50.820;6.494;2022-07-23T10:13:19;23.80;57.20
46309;DHT22;32037;50.820;6.494;2022-07-23T10:16:07;23.80;57.30
46309;DHT22;32037;50.820;6.494;2022-07-23T10:18:36;23.80;57.50
46309;DHT22;32037;50.820;6.494;2022-07-23T10:21:11;23.80;57.50
46309;DHT22;32037;50.820;6.494;2022-07-23T10:23:47;23.70;57.50
46309;DHT22;32037;50.820;6.494;2022-07-23T10:26:26;23.70;57.50
46309;DHT22;32037;50.820;6.494;2022-07-23T10:29:06;23.70;57.50
46309;DHT22;32037;50.820;6.494;2022-07-23T10:31:50;23.70;57.50
46309;DHT22;32037;50.820;6.494;2022-07-23T10:34:37;23.70;57.50
46309;DHT22;32037;50.820;6.494;2022-07-23T10:37:12;23.70;57.20
46309;DHT22;32037;50.820;6.494;2022-07-23T10:39:48;23.80;56.70
46309;DHT22;32037;50.820;6.494;2022-07-23T10:42:38;23.80;56.70
46309;DHT22;32037;50.820;6.494;2022-07-23T10:45:29;23.80;56.60
46309;DHT22;32037;50.820;6.494;2022-07-23T10:48:14;23.90;56.50
46309;DHT22;32037;50.820;6.494;2022-07-23T10:51:05;23.90;56.70
46309;DHT22;32037;50.820;6.494;2022-07-23T10:53:56;23.90;56.70
46309;DHT22;32037;50.820;6.494;2022-07-23T10:56:49;23.90;56.70
46309;DHT22;32037;50.820;6.494;2022-07-23T10:59:25;23.80;56.50
46309;DHT22;32037;50.820;6.494;2022-07-23T11:02:20;23.80;57.90
46309;DHT22;32037;50.820;6.494;2022-07-23T11:04:51;23.80;56.70
46309;DHT22;32037;50.820;6.494;2022-07-23T11:07:21;23.80;56.70
46309;DHT22;32037;50.820;6.494;2022-07-23T11:09:50;23.80;56.70
46309;DHT22;32037;50.820;6.494;2022-07-23T11:12:37;23.80;55.70
46309;DHT22;32037;50.820;6.494;2022-07-23T11:15:08;23.70;54.30
46309;DHT22;32037;50.820;6.494;2022-07-23T11:17:58;23.70;54.30
46309;DHT22;32037;50.820;6.494;2022-07-23T11:20:28;23.70;55.00
46309;DHT22;32037;50.820;6.494;2022-07-23T11:22:58;23.70;55.30
46309;DHT22;32037;50.820;6.494;2022-07-23T11:25:34;23.70;55.50
46309;DHT22;32037;50.820;6.494;2022-07-23T11:28:10;23.70;55.30
46309;DHT22;32037;50.820;6.494;2022-07-23T11:30:40;23.70;55.50
46309;DHT22;32037;50.820;6.494;2022-07-23T11:33:17;23.80;55.50
46309;DHT22;32037;50.820;6.494;2022-07-23T11:35:49;23.80;55.50
46309;DHT22;32037;50.820;6.494;2022-07-23T11:38:20;23.80;56.80
46309;DHT22;32037;50.820;6.494;2022-07-23T11:40:50;23.80;55.60
46309;DHT22;32037;50.820;6.494;2022-07-23T11:43:20;23.80;55.60
46309;DHT22;32037;50.820;6.494;2022-07-23T11:45:50;23.80;55.60
46309;DHT22;32037;50.820;6.494;2022-07-23T11:48:21;23.80;55.60
46309;DHT22;32037;50.820;6.494;2022-07-23T11:50:52;23.80;55.70
46309;DHT22;32037;50.820;6.494;2022-07-23T11:53:24;23.80;55.70
46309;DHT22;32037;50.820;6.494;2022-07-23T11:56:03;23.80;55.40
46309;DHT22;32037;50.820;6.494;2022-07-23T11:58:31;23.90;56.70
46309;DHT22;32037;50.820;6.494;2022-07-23T12:01:00;23.90;55.50
46309;DHT22;32037;50.820;6.494;2022-07-23T12:03:30;23.90;55.80
46309;DHT22;32037;50.820;6.494;2022-07-23T12:06:00;23.90;55.70
46309;DHT22;32037;50.820;6.494;2022-07-23T12:08:28;23.90;55.60
46309;DHT22;32037;50.820;6.494;2022-07-23T12:10:56;23.90;55.60
46309;DHT22;32037;50.820;6.494;2022-07-23T12:13:25;23.90;55.60
46309;DHT22;32037;50.820;6.494;2022-07-23T12:15:56;23.90;55.60
46309;DHT22;32037;50.820;6.494;2022-07-23T12:18:26;23.90;55.60
46309;DHT22;32037;50.820;6.494;2022-07-23T12:20:56;23.90;55.60
46309;DHT22;32037;50.820;6.494;2022-07-23T12:23:27;23.90;55.80
46309;DHT22;32037;50.820;6.494;2022-07-23T12:26:01;23.90;55.70
46309;DHT22;32037;50.820;6.494;2022-07-23T12:28:32;23.90;55.70
46309;DHT22;32037;50.820;6.494;2022-07-23T12:31:00;23.90;55.70
46309;DHT22;32037;50.820;6.494;2022-07-23T12:33:31;23.90;55.60
46309;DHT22;32037;50.820;6.494;2022-07-23T12:36:01;23.90;55.60
46309;DHT22;32037;50.820;6.494;2022-07-23T12:38:40;23.90;55.60
46309;DHT22;32037;50.820;6.494;2022-07-23T12:41:08;23.90;55.60
46309;DHT22;32037;50.820;6.494;2022-07-23T12:43:38;23.90;55.60
46309;DHT22;32037;50.820;6.494;2022-07-23T12:46:08;23.90;55.50
46309;DHT22;32037;50.820;6.494;2022-07-23T12:48:38;23.90;55.50
46309;DHT22;32037;50.820;6.494;2022-07-23T12:51:08;23.90;55.50
46309;DHT22;32037;50.820;6.494;2022-07-23T12:58:06;24.00;54.80
46309;DHT22;32037;50.820;6.494;2022-07-23T13:01:05;24.10;56.00
46309;DHT22;32037;50.820;6.494;2022-07-23T13:03:36;24.10;55.70
46309;DHT22;32037;50.820;6.494;2022-07-23T13:06:08;24.10;55.70
46309;DHT22;32037;50.820;6.494;2022-07-23T13:08:39;24.00;55.60
46309;DHT22;32037;50.820;6.494;2022-07-23T13:11:08;24.00;56.70
46309;DHT22;32037;50.820;6.494;2022-07-23T13:13:38;24.00;55.50
46309;DHT22;32037;50.820;6.494;2022-07-23T13:16:07;24.00;55.60
46309;DHT22;32037;50.820;6.494;2022-07-23T13:18:37;24.00;55.70
46309;DHT22;32037;50.820;6.494;2022-07-23T13:21:06;24.00;55.60
46309;DHT22;32037;50.820;6.494;2022-07-23T13:23:34;24.10;55.70
46309;DHT22;32037;50.820;6.494;2022-07-23T13:26:03;24.10;55.80
46309;DHT22;32037;50.820;6.494;2022-07-23T13:28:31;24.10;55.70
46309;DHT22;32037;50.820;6.494;2022-07-23T13:31:01;24.10;55.70
46309;DHT22;32037;50.820;6.494;2022-07-23T13:33:30;24.10;55.70
46309;DHT22;32037;50.820;6.494;2022-07-23T13:35:58;24.10;55.60
46309;DHT22;32037;50.820;6.494;2022-07-23T13:38:29;24.10;55.50
46309;DHT22;32037;50.820;6.494;2022-07-23T13:40:58;24.10;55.60
46309;DHT22;32037;50.820;6.494;2022-07-23T13:43:26;24.10;55.50
46309;DHT22;32037;50.820;6.494;2022-07-23T13:46:03;24.10;55.40
46309;DHT22;32037;50.820;6.494;2022-07-23T13:48:33;24.10;55.40
46309;DHT22;32037;50.820;6.494;2022-07-23T13:51:03;24.10;55.40
46309;DHT22;32037;50.820;6.494;2022-07-23T13:53:32;24.10;55.50
46309;DHT22;32037;50.820;6.494;2022-07-23T13:56:01;24.10;55.50
46309;DHT22;32037;50.820;6.494;2022-07-23T13:58:29;24.10;55.50
46309;DHT22;32037;50.820;6.494;2022-07-23T14:00:58;24.20;55.40
46309;DHT22;32037;50.820;6.494;2022-07-23T14:03:28;24.20;55.30
46309;DHT22;32037;50.820;6.494;2022-07-23T14:05:56;24.20;55.40
46309;DHT22;32037;50.820;6.494;2022-07-23T14:08:25;24.20;55.50
46309;DHT22;32037;50.820;6.494;2022-07-23T14:10:56;24.20;55.50
46309;DHT22;32037;50.820;6.494;2022-07-23T14:13:25;24.20;55.40
46309;DHT22;32037;50.820;6.494;2022-07-23T14:15:56;24.20;55.40
46309;DHT22;32037;50.820;6.494;2022-07-23T14:18:25;24.20;55.40
46309;DHT22;32037;50.820;6.494;2022-07-23T14:21:01;24.20;55.40
46309;DHT22;32037;50.820;6.494;2022-07-23T14:23:29;24.20;55.40
46309;DHT22;32037;50.820;6.494;2022-07-23T14:25:57;24.20;55.40
46309;DHT22;32037;50.820;6.494;2022-07-23T14:28:26;24.30;55.50
46309;DHT22;32037;50.820;6.494;2022-07-23T14:30:57;24.20;55.40
46309;DHT22;32037;50.820;6.494;2022-07-23T14:33:28;24.30;55.20
46309;DHT22;32037;50.820;6.494;2022-07-23T14:35:56;24.30;55.20
46309;DHT22;32037;50.820;6.494;2022-07-23T14:38:27;24.30;55.10
46309;DHT22;32037;50.820;6.494;2022-07-23T14:40:57;24.30;55.20
46309;DHT22;32037;50.820;6.494;2022-07-23T14:43:27;24.30;55.20
46309;DHT22;32037;50.820;6.494;2022-07-23T14:45:55;24.30;55.20
46309;DHT22;32037;50.820;6.494;2022-07-23T14:48:24;24.30;56.10
46309;DHT22;32037;50.820;6.494;2022-07-23T14:50:54;24.30;54.90
46309;DHT22;32037;50.820;6.494;2022-07-23T14:53:23;24.30;54.90
46309;DHT22;32037;50.820;6.494;2022-07-23T14:55:53;24.30;55.10
46309;DHT22;32037;50.820;6.494;2022-07-23T14:58:24;24.30;55.10
46309;DHT22;32037;50.820;6.494;2022-07-23T15:00:53;24.30;55.10
46309;DHT22;32037;50.820;6.494;2022-07-23T15:03:22;24.30;55.10
46309;DHT22;32037;50.820;6.494;2022-07-23T15:06:11;24.40;55.20
46309;DHT22;32037;50.820;6.494;2022-07-23T15:08:40;24.40;55.10
46309;DHT22;32037;50.820;6.494;2022-07-23T15:11:10;24.40;55.20
46309;DHT22;32037;50.820;6.494;2022-07-23T15:13:39;24.40;55.20
46309;DHT22;32037;50.820;6.494;2022-07-23T15:16:08;24.40;55.10
46309;DHT22;32037;50.820;6.494;2022-07-23T15:18:37;24.40;55.10
46309;DHT22;32037;50.820;6.494;2022-07-23T15:21:05;24.40;55.10
46309;DHT22;32037;50.820;6.494;2022-07-23T15:23:35;24.40;55.00
46309;DHT22;32037;50.820;6.494;2022-07-23T15:26:09;24.40;55.00
46309;DHT22;32037;50.820;6.494;2022-07-23T15:28:38;24.40;55.00
46309;DHT22;32037;50.820;6.494;2022-07-23T15:31:08;24.40;55.00
46309;DHT22;32037;50.820;6.494;2022-07-23T15:33:36;24.50;54.90
46309;DHT22;32037;50.820;6.494;2022-07-23T15:36:07;24.50;54.90
46309;DHT22;32037;50.820;6.494;2022-07-23T15:38:36;24.50;54.30
46309;DHT22;32037;50.820;6.494;2022-07-23T15:41:05;24.50;54.60
46309;DHT22;32037;50.820;6.494;2022-07-23T15:43:36;24.50;54.60
46309;DHT22;32037;50.820;6.494;2022-07-23T15:46:06;24.50;54.60
46309;DHT22;32037;50.820;6.494;2022-07-23T15:48:35;24.50;54.70
46309;DHT22;32037;50.820;6.494;2022-07-23T15:51:05;24.50;54.80
46309;DHT22;32037;50.820;6.494;2022-07-23T15:53:34;24.50;54.90
46309;DHT22;32037;50.820;6.494;2022-07-23T15:56:05;24.50;54.80
46309;DHT22;32037;50.820;6.494;2022-07-23T15:58:56;24.50;54.90